createdAt,value
2023-03-07T00:00:58.250Z,29.55
2023-03-07T00:06:07.222Z,31.17
2023-03-07T00:11:14.044Z,30.67
2023-03-07T00:16:23.285Z,33.53
2023-03-07T00:21:37.017Z,31.73
2023-03-07T00:26:43.097Z,31.35
2023-03-07T00:36:57.536Z,34.65
2023-03-07T00:42:04.200Z,28.67
2023-03-07T00:47:10.892Z,32.78
2023-03-07T00:52:18.391Z,37.00
2023-03-07T00:57:26.021Z,30.95
2023-03-07T01:02:32.385Z,36.80
2023-03-07T01:17:56.390Z,38.83
2023-03-07T01:23:03.761Z,39.65
2023-03-07T01:28:12.406Z,41.15
2023-03-07T01:33:18.763Z,40.60
2023-03-07T01:43:40.517Z,46.20
2023-03-07T01:49:33.196Z,38.28
2023-03-07T01:54:50.495Z,44.20
2023-03-07T02:00:07.814Z,41.53
2023-03-07T02:05:28.424Z,39.22
2023-03-07T02:10:37.577Z,37.05
2023-03-07T02:15:54.444Z,37.42
2023-03-07T02:21:07.314Z,36.13
2023-03-07T02:26:24.707Z,33.50
2023-03-07T02:31:32.208Z,32.38
2023-03-07T02:36:39.861Z,32.45
2023-03-07T02:42:09.778Z,29.48
2023-03-07T02:47:24.323Z,31.10
2023-03-07T02:52:31.615Z,30.75
2023-03-07T02:57:38.821Z,31.58
2023-03-07T03:02:45.922Z,29.77
2023-03-07T03:07:52.204Z,20.92
2023-03-07T03:12:58.974Z,30.77
2023-03-07T03:18:06.077Z,21.00
2023-03-07T03:23:12.576Z,13.93
2023-03-07T03:28:19.145Z,18.65
2023-03-07T03:33:27.740Z,22.75
2023-03-07T03:38:35.294Z,28.55
2023-03-07T03:43:41.859Z,19.45
2023-03-07T03:48:58.978Z,29.15
2023-03-07T03:54:06.731Z,16.20
2023-03-07T03:59:14.965Z,13.98
2023-03-07T04:04:22.145Z,14.98
2023-03-07T04:09:34.980Z,29.58
2023-03-07T04:14:42.418Z,23.13
2023-03-07T04:24:54.482Z,25.52
2023-03-07T04:30:01.347Z,21.13
2023-03-07T04:35:11.735Z,31.90
2023-03-07T04:40:18.604Z,26.38
2023-03-07T04:45:24.830Z,31.38
2023-03-07T04:50:32.464Z,26.30
2023-03-07T04:55:39.478Z,21.85
2023-03-07T05:00:47.797Z,21.73
2023-03-07T05:05:55.052Z,30.90
2023-03-07T05:11:01.654Z,19.73
2023-03-07T05:16:09.360Z,28.80
2023-03-07T05:21:16.211Z,32.60
2023-03-07T05:26:22.647Z,16.15
2023-03-07T05:31:29.580Z,31.73
2023-03-07T05:36:36.541Z,20.20
2023-03-07T05:41:43.303Z,18.92
2023-03-07T05:46:50.780Z,21.00
2023-03-07T05:51:57.015Z,26.75
2023-03-07T05:57:06.723Z,23.45
2023-03-07T06:02:13.397Z,28.67
2023-03-07T06:07:20.215Z,33.50
2023-03-07T06:12:27.358Z,17.95
2023-03-07T06:17:33.982Z,18.10
2023-03-07T06:22:40.833Z,18.45
2023-03-07T06:27:47.561Z,19.63
2023-03-07T06:32:53.727Z,19.85
2023-03-07T06:38:00.578Z,23.10
2023-03-07T06:43:07.587Z,19.75
2023-03-07T06:48:14.119Z,20.20
2023-03-07T06:53:21.368Z,29.90
2023-03-07T06:58:28.567Z,26.67
2023-03-07T07:03:35.143Z,32.00
2023-03-07T07:08:41.420Z,25.40
2023-03-07T07:13:49.298Z,26.02
2023-03-07T07:18:57.895Z,17.23
2023-03-07T07:24:04.865Z,23.98
2023-03-07T07:29:22.976Z,14.40
2023-03-07T07:34:31.213Z,22.92
2023-03-07T07:39:37.751Z,15.68
2023-03-07T07:44:52.852Z,19.38
2023-03-07T07:50:16.088Z,19.92
2023-03-07T07:55:22.632Z,20.13
2023-03-07T08:00:29.620Z,29.42
2023-03-07T08:05:35.973Z,32.38
2023-03-07T08:10:45.179Z,31.02
2023-03-07T08:15:51.559Z,33.00
2023-03-07T08:21:02.322Z,29.50
2023-03-07T08:26:11.857Z,32.65
2023-03-07T08:31:25.258Z,35.13
2023-03-07T08:36:31.761Z,32.92
2023-03-07T08:41:38.225Z,33.70
2023-03-07T08:46:45.681Z,28.20
2023-03-07T08:51:53.955Z,23.15
2023-03-07T08:57:00.503Z,34.30
2023-03-07T09:02:06.811Z,36.50
2023-03-07T09:07:13.049Z,24.60
2023-03-07T09:12:21.251Z,34.55
2023-03-07T09:17:27.724Z,34.05
2023-03-07T09:22:34.616Z,32.53
2023-03-07T09:27:41.490Z,31.45
2023-03-07T09:32:48.131Z,18.50
2023-03-07T09:37:54.524Z,37.28
2023-03-07T09:43:07.968Z,33.80
2023-03-07T09:48:27.907Z,39.05
2023-03-07T09:53:47.596Z,26.98
2023-03-07T09:59:22.431Z,23.20
2023-03-07T10:04:42.887Z,35.78
2023-03-07T10:09:49.835Z,26.17
2023-03-07T10:15:30.875Z,21.05
2023-03-07T10:20:59.821Z,30.48
2023-03-07T10:26:21.339Z,26.98
2023-03-07T10:31:41.915Z,46.25
2023-03-07T10:37:00.163Z,41.22
2023-03-07T10:42:20.053Z,41.25
2023-03-07T10:47:30.474Z,36.17
2023-03-07T10:53:04.685Z,42.72
2023-03-07T10:58:28.890Z,45.10
2023-03-07T11:03:58.581Z,79.20
2023-03-07T11:09:30.479Z,79.72
2023-03-07T11:15:20.513Z,95.75
2023-03-07T11:20:49.036Z,79.88
2023-03-07T11:25:57.962Z,126.13
2023-03-07T11:31:23.701Z,96.15
2023-03-07T11:43:17.009Z,162.63
2023-03-07T11:48:55.164Z,41.22
2023-03-07T11:54:09.143Z,95.85
2023-03-07T11:59:41.956Z,85.95
2023-03-07T12:04:55.069Z,76.68
2023-03-07T12:11:15.097Z,116.88
2023-03-07T12:16:42.753Z,69.13
2023-03-07T12:21:52.988Z,106.30
2023-03-07T12:33:47.179Z,72.88
2023-03-07T12:39:18.400Z,45.55
2023-03-07T12:44:48.308Z,56.00
2023-03-07T12:50:17.539Z,74.63
2023-03-07T12:55:32.674Z,62.17
2023-03-07T13:00:49.003Z,59.63
2023-03-07T13:17:02.386Z,52.15
2023-03-07T13:22:19.581Z,47.95
2023-03-07T13:27:57.535Z,52.00
2023-03-07T13:34:19.777Z,54.00
2023-03-07T13:40:06.792Z,50.78
2023-03-07T13:45:59.863Z,44.65
2023-03-07T13:51:20.162Z,44.38
2023-03-07T13:57:35.806Z,46.35
2023-03-07T14:02:59.017Z,43.15
2023-03-07T14:08:33.027Z,43.67
2023-03-07T14:14:28.796Z,43.50
2023-03-07T14:20:00.519Z,43.90
2023-03-07T14:25:16.300Z,42.63
2023-03-07T14:30:32.288Z,44.35
2023-03-07T14:35:55.725Z,42.33
2023-03-07T14:41:27.487Z,44.80
2023-03-07T14:53:30.834Z,41.83
2023-03-07T15:05:20.815Z,40.65
2023-03-07T15:17:25.257Z,37.88
2023-03-07T15:22:41.839Z,39.90
2023-03-07T15:27:49.897Z,34.78
2023-03-07T15:33:18.721Z,38.20
2023-03-07T15:38:28.059Z,39.10
2023-03-07T15:43:38.056Z,35.47
2023-03-07T15:48:44.936Z,38.22
2023-03-07T15:54:23.889Z,34.70
2023-03-07T16:05:35.330Z,32.78
2023-03-07T16:17:03.600Z,36.15
2023-03-07T16:22:23.382Z,36.70
2023-03-07T16:27:30.548Z,28.92
2023-03-07T16:32:43.573Z,38.92
2023-03-07T16:38:24.937Z,38.88
2023-03-07T16:43:46.160Z,33.00
2023-03-07T16:48:54.326Z,39.78
2023-03-07T16:54:01.684Z,23.92
2023-03-07T16:59:10.270Z,27.90
2023-03-07T17:04:17.403Z,39.28
2023-03-07T17:09:24.704Z,41.60
2023-03-07T17:14:31.670Z,39.42
2023-03-07T17:19:54.140Z,21.17
2023-03-07T17:25:11.016Z,33.60
2023-03-07T17:30:29.064Z,34.30
2023-03-07T17:35:41.061Z,38.83
2023-03-07T17:40:47.118Z,39.22
2023-03-07T17:50:58.326Z,34.38
2023-03-07T17:56:15.802Z,38.38
2023-03-07T18:01:21.965Z,36.88
2023-03-07T18:06:28.974Z,38.42
2023-03-07T18:11:36.940Z,41.15
2023-03-07T18:16:45.587Z,40.42
2023-03-07T18:21:53.629Z,38.85
2023-03-07T18:27:05.067Z,42.13
2023-03-07T18:32:11.109Z,39.55
2023-03-07T18:37:17.980Z,40.65
2023-03-07T18:42:24.501Z,42.17
2023-03-07T18:47:31.100Z,39.40
2023-03-07T18:52:37.654Z,41.28
2023-03-07T18:57:44.435Z,42.53
2023-03-07T19:02:50.873Z,41.65
2023-03-07T19:07:57.485Z,40.33
2023-03-07T19:13:03.863Z,40.35
2023-03-07T19:18:10.776Z,39.42
2023-03-07T19:23:17.876Z,39.50
2023-03-07T19:28:24.306Z,37.90
2023-03-07T19:33:30.592Z,39.47
2023-03-07T19:38:37.547Z,38.22
2023-03-07T19:43:44.884Z,37.85
2023-03-07T19:48:51.250Z,37.47
2023-03-07T19:53:58.259Z,36.88
2023-03-07T19:59:08.267Z,37.13
2023-03-07T20:04:16.186Z,36.22
2023-03-07T20:09:22.583Z,36.22
2023-03-07T20:14:29.147Z,36.72
2023-03-07T20:19:35.406Z,34.28
2023-03-07T20:24:41.611Z,38.75
2023-03-07T20:29:47.633Z,36.55
2023-03-07T20:34:55.352Z,38.53
2023-03-07T20:40:04.740Z,36.13
2023-03-07T20:45:12.018Z,36.25
2023-03-07T20:50:18.689Z,33.42
2023-03-07T20:55:24.995Z,38.47
2023-03-07T21:00:34.083Z,38.30
2023-03-07T21:05:40.749Z,34.10
2023-03-07T21:10:47.002Z,39.35
2023-03-07T21:21:09.469Z,36.35
2023-03-07T21:26:18.259Z,36.03
2023-03-07T21:31:27.034Z,36.92
2023-03-07T21:43:42.768Z,33.42
2023-03-07T21:48:49.090Z,36.03
2023-03-07T22:05:49.406Z,34.67
2023-03-07T22:11:03.205Z,31.83
2023-03-07T22:16:13.931Z,32.67
2023-03-07T22:21:20.338Z,34.72
2023-03-07T22:26:27.171Z,33.13
2023-03-07T22:31:33.809Z,33.15
2023-03-07T22:36:40.073Z,33.33
2023-03-07T22:41:46.788Z,32.70
2023-03-07T22:46:53.569Z,33.63
2023-03-07T22:52:04.088Z,32.60
2023-03-07T22:57:10.298Z,32.78
2023-03-07T23:02:17.007Z,31.67
2023-03-07T23:07:23.122Z,32.50
2023-03-07T23:17:34.920Z,30.58
2023-03-07T23:22:42.589Z,31.55
2023-03-07T23:27:48.757Z,31.95
2023-03-07T23:38:01.544Z,33.72
2023-03-07T23:43:07.673Z,30.60
2023-03-07T23:53:19.803Z,30.25
2023-03-07T23:58:26.694Z,32.88
